Time;durP1;ratioP1;P1;durP2;ratioP2;P2;SDS_P1;SDS_P2;PMS_P1;PMS_P2;Temp;Humidity;BMP_temperature;BMP_pressure;BME280_temperature;BME280_humidity;BME280_pressure;Samples;Min_cycle;Max_cycle;Signal;HPM_P1;HPM_P2
2022/04/30 00:00:51;;;;;;;;;;;;;;;7.27;90.05;100187.08;1625612;87;20802;-72
2022/04/30 00:03:24;;;;;;;;;;;;;;;7.19;89.83;100189.56;1640365;86;20178;-72
2022/04/30 00:05:58;;;;;;;;;;;;;;;7.04;89.91;100189.05;1584678;88;20180;-73
2022/04/30 00:08:34;;;;;;;;;;;;;;;6.87;90.30;100183.11;1643703;86;20106;-73
2022/04/30 00:11:07;;;;;;;;;;;;;;;6.73;90.84;100180.13;1629789;86;20443;-72
2022/04/30 00:13:38;;;;;;;;;;;;;;;6.60;91.36;100184.23;1649318;86;20175;-73
2022/04/30 00:16:06;;;;;;;;;;;;;;;6.51;92.20;100183.69;1614981;87;20503;-72
2022/04/30 00:18:37;;;;;;;;;;;;;;;6.41;92.96;100180.95;1638528;86;21257;-73
2022/04/30 00:21:11;;;;;;;;;;;;;;;6.32;93.49;100176.62;1659378;85;20429;-73
2022/04/30 00:23:40;;;;;;;;;;;;;;;6.26;93.93;100174.98;1624269;88;20186;-72
2022/04/30 00:26:08;;;;;;;;;;;;;;;6.19;94.31;100177.16;1644155;86;20433;-72
2022/04/30 00:28:37;;;;;;;;;;;;;;;6.14;94.62;100171.70;1602941;88;20132;-72
2022/04/30 00:31:12;;;;;;;;;;;;;;;6.08;95.00;100169.51;1654756;86;21803;-72
2022/04/30 00:33:38;;;;;;;;;;;;;;;6.03;95.32;100167.32;1603924;88;20488;-72
2022/04/30 00:36:08;;;;;;;;;;;;;;;5.96;95.60;100160.77;1619649;86;20128;-72
2022/04/30 00:38:38;;;;;;;;;;;;;;;5.91;95.76;100158.85;1608328;88;20132;-71
2022/04/30 00:41:15;;;;;;;;;;;;;;;5.84;95.79;100157.44;1626435;87;20204;-71
2022/04/30 00:43:49;;;;;;;;;;;;;;;5.77;95.96;100148.20;1569699;87;20501;-72
2022/04/30 00:46:15;;;;;;;;;;;;;;;5.70;96.32;100153.08;1598969;87;20149;-71
2022/04/30 00:48:44;;;;;;;;;;;;;;;5.65;96.72;100154.42;1586083;88;20119;-72
2022/04/30 00:51:19;;;;;;;;;;;;;;;5.60;96.97;100147.61;1625689;87;20096;-72
2022/04/30 00:53:46;;;;;;;;;;;;;;;5.53;97.20;100147.04;1566099;90;20457;-71
2022/04/30 00:56:14;;;;;;;;;;;;;;;5.49;97.52;100144.58;1619104;87;21186;-72
2022/04/30 00:58:45;;;;;;;;;;;;;;;5.44;97.74;100138.56;1617815;87;20140;-72
2022/04/30 01:01:15;;;;;;;;;;;;;;;5.39;97.90;100134.47;1581004;89;20095;-72
2022/04/30 01:03:50;;;;;;;;;;;;;;;5.37;98.15;100143.98;1618943;88;20140;-71
2022/04/30 01:06:32;;;;;;;;;;;;;;;5.34;98.45;100140.44;1600231;88;20133;-72
2022/04/30 01:09:01;;;;;;;;;;;;;;;5.29;98.59;100142.05;1598019;89;21203;-72
2022/04/30 01:11:35;;;;;;;;;;;;;;;5.26;98.86;100136.31;1577663;90;20125;-72
2022/04/30 01:14:07;;;;;;;;;;;;;;;5.22;99.14;100140.66;1584594;89;20109;-72
2022/04/30 01:16:35;;;;;;;;;;;;;;;5.17;99.40;100137.41;1574797;89;20134;-72
2022/04/30 01:19:07;;;;;;;;;;;;;;;5.14;99.56;100137.11;1575971;90;20444;-72
2022/04/30 01:21:36;;;;;;;;;;;;;;;5.10;99.65;100134.64;1576040;90;21297;-72
2022/04/30 01:24:04;;;;;;;;;;;;;;;5.06;99.83;100134.90;1582408;89;20116;-73
2022/04/30 01:26:33;;;;;;;;;;;;;;;5.03;100.00;100135.42;1580033;90;20186;-72
2022/04/30 01:29:08;;;;;;;;;;;;;;;5.02;100.00;100135.15;1581213;90;20187;-73
2022/04/30 01:37:24;;;;;;;;;;;;;;;4.93;100.00;100135.66;1597644;88;20094;-74
2022/04/30 01:39:57;;;;;;;;;;;;;;;4.90;100.00;100134.81;1622204;88;20152;-71
2022/04/30 01:42:29;;;;;;;;;;;;;;;4.89;100.00;100136.44;1594910;88;20467;-71
2022/04/30 01:45:00;;;;;;;;;;;;;;;4.86;100.00;100128.81;1609075;88;20172;-71
2022/04/30 01:47:37;;;;;;;;;;;;;;;4.85;100.00;100125.81;1599748;87;20085;-71
2022/04/30 01:50:05;;;;;;;;;;;;;;;4.86;100.00;100128.81;1616268;87;20108;-71
2022/04/30 01:52:36;;;;;;;;;;;;;;;4.84;100.00;100122.81;1588231;89;20185;-71
2022/04/30 01:55:05;;;;;;;;;;;;;;;4.82;100.00;100116.81;1571395;91;20473;-71
2022/04/30 01:57:41;;;;;;;;;;;;;;;4.79;100.00;100122.78;1600218;89;20110;-70
2022/04/30 02:00:14;;;;;;;;;;;;;;;4.76;100.00;100118.69;1598913;88;20133;-73
2022/04/30 02:02:44;;;;;;;;;;;;;;;4.76;100.00;100120.05;1630859;87;20092;-73
2022/04/30 02:05:13;;;;;;;;;;;;;;;4.76;100.00;100116.51;1582266;87;20159;-73
2022/04/30 02:08:03;;;;;;;;;;;;;;;4.75;100.00;100118.41;1585765;87;20474;-73
2022/04/30 02:10:27;;;;;;;;;;;;;;;4.74;100.00;100114.05;1607663;87;20109;-73
2022/04/30 02:12:54;;;;;;;;;;;;;;;4.72;100.00;100109.95;1596873;89;21273;-71
2022/04/30 02:15:25;;;;;;;;;;;;;;;4.70;100.00;100108.04;1624744;87;20104;-71
2022/04/30 02:17:52;;;;;;;;;;;;;;;4.70;100.00;100106.69;1614420;87;20093;-71
2022/04/30 02:20:27;;;;;;;;;;;;;;;4.69;100.00;100105.05;1622377;87;20193;-72
2022/04/30 02:22:58;;;;;;;;;;;;;;;4.68;100.00;100104.77;1620901;87;20129;-71
2022/04/30 02:25:31;;;;;;;;;;;;;;;4.67;100.00;100104.48;1598175;88;20131;-72
2022/04/30 02:28:08;;;;;;;;;;;;;;;4.64;100.00;100105.30;1606884;87;20081;-71
2022/04/30 02:30:38;;;;;;;;;;;;;;;4.63;100.00;100106.91;1619371;87;20101;-72
2022/04/30 02:33:08;;;;;;;;;;;;;;;4.61;100.00;100104.48;1607160;87;20444;-72
2022/04/30 02:35:43;;;;;;;;;;;;;;;4.60;100.00;100110.19;1610948;87;20207;-72
2022/04/30 02:38:19;;;;;;;;;;;;;;;4.57;100.00;100112.89;1624505;87;21100;-72
2022/04/30 02:40:47;;;;;;;;;;;;;;;4.57;100.00;100110.17;1613543;87;20463;-72
2022/04/30 02:43:26;;;;;;;;;;;;;;;4.57;100.00;100110.72;1596137;88;20159;-71
2022/04/30 02:45:45;;;;;;;;;;;;;;;4.58;100.00;100111.81;1625237;87;20423;-72
2022/04/30 02:48:15;;;;;;;;;;;;;;;4.60;100.00;100114.27;1627858;87;20187;-71
2022/04/30 02:50:49;;;;;;;;;;;;;;;4.65;100.00;100123.25;1598495;89;21889;-72
2022/04/30 02:53:18;;;;;;;;;;;;;;;4.73;100.00;100124.66;1616162;88;20104;-71
2022/04/30 02:55:50;;;;;;;;;;;;;;;4.80;100.00;100133.94;1594464;89;20460;-72
2022/04/30 03:01:02;;;;;;;;;;;;;;;4.86;100.00;100124.19;1670644;85;20094;-72
2022/04/30 03:03:51;;;;;;;;;;;;;;;4.93;100.00;100125.31;1660634;85;21265;-72
2022/04/30 03:06:22;;;;;;;;;;;;;;;5.03;100.00;100120.46;1663548;86;20224;-72
2022/04/30 03:08:52;;;;;;;;;;;;;;;5.12;100.00;100116.97;1638459;85;20464;-72
2022/04/30 03:11:20;;;;;;;;;;;;;;;5.19;100.00;100114.00;1660719;86;20146;-72
2022/04/30 03:13:56;;;;;;;;;;;;;;;5.25;100.00;100116.98;1661850;86;20174;-72
2022/04/30 03:22:05;;;;;;;;;;;;;;;5.41;100.00;100119.22;1633114;85;20149;-72
2022/04/30 03:24:33;;;;;;;;;;;;;;;5.45;100.00;100117.06;1664695;85;20106;-71
2022/04/30 03:27:07;;;;;;;;;;;;;;;5.49;100.00;100122.24;1664191;85;20153;-72
2022/04/30 03:29:46;;;;;;;;;;;;;;;5.52;100.00;100117.63;1663888;85;21290;-72
2022/04/30 03:32:11;;;;;;;;;;;;;;;5.56;100.00;100117.91;1667320;84;20144;-72
2022/04/30 03:34:41;;;;;;;;;;;;;;;5.58;100.00;100131.53;1662572;86;20130;-72
2022/04/30 03:37:10;;;;;;;;;;;;;;;5.62;100.00;100149.52;1661306;86;20466;-72
2022/04/30 03:39:40;;;;;;;;;;;;;;;5.66;100.00;100145.17;1665264;85;20154;-73
2022/04/30 03:42:07;;;;;;;;;;;;;;;5.75;100.00;100135.39;1661514;84;21205;-72
2022/04/30 03:44:38;;;;;;;;;;;;;;;5.90;100.00;100138.69;1661517;85;20351;-72
2022/04/30 03:47:07;;;;;;;;;;;;;;;6.04;100.00;100143.06;1629572;85;20210;-72
2022/04/30 03:49:42;;;;;;;;;;;;;;;6.18;100.00;100145.53;1629942;86;20174;-71
2022/04/30 03:52:14;;;;;;;;;;;;;;;6.30;100.00;100144.72;1645253;85;20170;-73
2022/04/30 03:54:50;;;;;;;;;;;;;;;6.41;100.00;100149.05;1631358;86;20181;-72
2022/04/30 03:57:17;;;;;;;;;;;;;;;6.48;100.00;100136.50;1654168;84;20128;-72
2022/04/30 03:59:54;;;;;;;;;;;;;;;6.56;100.00;100135.94;1642003;86;20106;-72
2022/04/30 04:02:21;;;;;;;;;;;;;;;6.62;100.00;100138.39;1630085;85;20916;-72
2022/04/30 04:04:47;;;;;;;;;;;;;;;6.75;100.00;100140.28;1648031;84;20157;-72
2022/04/30 04:07:16;;;;;;;;;;;;;;;6.83;100.00;100142.45;1642845;86;21063;-72
2022/04/30 04:09:42;;;;;;;;;;;;;;;6.93;100.00;100145.16;1659106;86;20176;-71
2022/04/30 04:12:19;;;;;;;;;;;;;;;7.04;100.00;100144.00;1634241;85;20150;-71
2022/04/30 04:17:38;;;;;;;;;;;;;;;7.35;100.00;100137.07;1666308;84;20146;-73
2022/04/30 04:20:10;;;;;;;;;;;;;;;7.53;100.00;100143.23;1639902;86;21212;-72
2022/04/30 04:22:43;;;;;;;;;;;;;;;7.70;100.00;100139.59;1648163;85;20147;-73
2022/04/30 04:27:58;;;;;;;;;;;;;;;8.00;100.00;100133.13;1644489;86;20131;-73
2022/04/30 04:30:33;;;;;;;;;;;;;;;8.16;100.00;100129.14;1649447;86;20202;-72
2022/04/30 04:32:59;;;;;;;;;;;;;;;8.28;100.00;100125.49;1638902;84;21161;-72
2022/04/30 04:35:27;;;;;;;;;;;;;;;8.43;100.00;100123.76;1635014;85;20140;-72
2022/04/30 04:37:55;;;;;;;;;;;;;;;8.56;100.00;100125.28;1650565;84;20126;-72
2022/04/30 04:40:26;;;;;;;;;;;;;;;8.70;99.03;100124.02;1636896;86;20865;-71
2022/04/30 04:42:57;;;;;;;;;;;;;;;8.86;98.96;100128.23;1647837;86;20103;-71
2022/04/30 04:45:26;;;;;;;;;;;;;;;9.00;97.28;100120.70;1646472;86;21302;-70
2022/04/30 04:48:00;;;;;;;;;;;;;;;9.13;96.43;100125.48;1645599;86;20201;-70
2022/04/30 04:50:25;;;;;;;;;;;;;;;9.28;95.96;100135.67;1645122;85;20177;-71
2022/04/30 04:52:54;;;;;;;;;;;;;;;9.45;95.38;100125.59;1665497;85;20120;-72
2022/04/30 04:55:22;;;;;;;;;;;;;;;9.63;93.92;100133.59;1666940;85;20121;-71
2022/04/30 04:57:52;;;;;;;;;;;;;;;9.79;93.01;100130.89;1649461;86;22060;-71
2022/04/30 05:00:20;;;;;;;;;;;;;;;9.94;91.33;100136.13;1649432;87;20146;-71
2022/04/30 05:02:49;;;;;;;;;;;;;;;10.09;90.53;100138.38;1616954;87;20133;-72
2022/04/30 05:05:15;;;;;;;;;;;;;;;10.20;89.09;100137.14;1627297;87;20547;-71
2022/04/30 05:07:55;;;;;;;;;;;;;;;10.29;87.21;100139.47;1609811;87;20149;-70
2022/04/30 05:10:13;;;;;;;;;;;;;;;10.36;86.19;100141.27;1583369;88;21786;-71
2022/04/30 05:12:43;;;;;;;;;;;;;;;10.40;84.08;100139.53;1581942;89;20089;-71
2022/04/30 05:15:17;;;;;;;;;;;;;;;10.43;83.60;100135.37;1583734;89;20153;-74
2022/04/30 05:17:44;;;;;;;;;;;;;;;10.48;83.17;100135.28;1609175;88;20135;-70
2022/04/30 05:20:16;;;;;;;;;;;;;;;10.50;81.53;100137.98;1626804;87;20133;-69
2022/04/30 05:22:48;;;;;;;;;;;;;;;10.54;81.00;100141.76;1601265;89;21143;-72
2022/04/30 05:25:13;;;;;;;;;;;;;;;10.67;81.30;100144.84;1624981;86;20403;-71
2022/04/30 05:27:41;;;;;;;;;;;;;;;10.79;80.85;100142.42;1631927;87;20156;-71
2022/04/30 05:30:09;;;;;;;;;;;;;;;10.85;79.45;100142.59;1619154;86;20465;-71
2022/04/30 05:32:36;;;;;;;;;;;;;;;10.85;78.18;100143.97;1631112;86;20277;-71
2022/04/30 05:35:05;;;;;;;;;;;;;;;10.87;78.61;100149.97;1594672;87;20161;-71
2022/04/30 05:37:33;;;;;;;;;;;;;;;10.96;77.95;100152.83;1612676;88;20100;-70
2022/04/30 05:40:02;;;;;;;;;;;;;;;11.02;76.75;100148.84;1608326;87;20439;-70
2022/04/30 05:42:32;;;;;;;;;;;;;;;11.10;76.60;100155.82;1597913;89;20127;-70
2022/04/30 05:44:59;;;;;;;;;;;;;;;11.15;75.54;100157.66;1595061;88;20435;-70
2022/04/30 05:47:29;;;;;;;;;;;;;;;11.19;76.38;100151.81;1596685;88;20109;-70
2022/04/30 05:49:58;;;;;;;;;;;;;;;11.32;77.11;100155.12;1583287;88;20419;-70
2022/04/30 05:52:29;;;;;;;;;;;;;;;11.44;75.97;100154.61;1612411;87;20499;-70
2022/04/30 05:55:15;;;;;;;;;;;;;;;11.53;75.36;100154.14;1592516;89;20127;-70
2022/04/30 05:57:31;;;;;;;;;;;;;;;11.64;73.85;100153.34;1603996;88;20148;-71
2022/04/30 06:00:04;;;;;;;;;;;;;;;11.73;73.40;100151.48;1577530;88;21286;-70
2022/04/30 06:02:34;;;;;;;;;;;;;;;11.88;74.38;100151.19;1603463;88;20444;-70
2022/04/30 06:05:08;;;;;;;;;;;;;;;12.04;72.71;100157.16;1552064;89;20220;-70
2022/04/30 06:07:36;;;;;;;;;;;;;;;12.20;72.28;100150.14;1623743;87;20143;-70
2022/04/30 06:10:05;;;;;;;;;;;;;;;12.39;72.18;100142.52;1626239;87;20227;-71
2022/04/30 06:12:36;;;;;;;;;;;;;;;12.60;71.34;100142.82;1570028;89;20122;-71
2022/04/30 06:15:06;;;;;;;;;;;;;;;12.78;70.59;100149.22;1587188;89;20160;-71
2022/04/30 06:17:34;;;;;;;;;;;;;;;12.96;70.52;100145.42;1586602;89;20465;-71
2022/04/30 06:20:05;;;;;;;;;;;;;;;13.14;69.39;100141.63;1586048;89;20172;-71
2022/04/30 06:22:38;;;;;;;;;;;;;;;13.33;68.05;100140.55;1587132;89;20477;-71
2022/04/30 06:25:11;;;;;;;;;;;;;;;13.50;67.26;100132.34;1584768;89;21170;-71
2022/04/30 06:27:35;;;;;;;;;;;;;;;13.68;65.80;100140.08;1572509;89;20101;-71
2022/04/30 06:30:06;;;;;;;;;;;;;;;13.78;62.70;100140.59;1635774;87;20151;-71
2022/04/30 06:32:35;;;;;;;;;;;;;;;13.78;60.87;100130.94;1638503;87;20175;-71
2022/04/30 06:35:05;;;;;;;;;;;;;;;13.69;59.23;100137.00;1635192;86;20121;-71
2022/04/30 06:37:36;;;;;;;;;;;;;;;13.55;59.71;100143.22;1634692;85;20160;-70
2022/04/30 06:40:08;;;;;;;;;;;;;;;13.42;60.51;100138.07;1631843;87;20108;-70
2022/04/30 06:42:44;;;;;;;;;;;;;;;13.42;60.17;100145.53;1608162;87;20141;-70
2022/04/30 06:45:13;;;;;;;;;;;;;;;13.46;58.97;100142.38;1635838;86;20181;-70
2022/04/30 06:47:44;;;;;;;;;;;;;;;13.47;57.73;100142.63;1631000;86;20104;-70
2022/04/30 06:50:13;;;;;;;;;;;;;;;13.52;58.35;100146.62;1634960;87;21167;-71
2022/04/30 06:58:14;;;;;;;;;;;;;;;13.77;54.12;100146.43;1636705;87;20775;-69
2022/04/30 07:03:29;;;;;;;;;;;;;;;13.91;53.59;100144.88;1636209;86;21184;-70
2022/04/30 07:06:04;;;;;;;;;;;;;;;14.06;55.73;100145.78;1636663;87;20108;-70
2022/04/30 07:08:34;;;;;;;;;;;;;;;14.24;56.60;100139.70;1629082;86;20120;-70
2022/04/30 07:11:06;;;;;;;;;;;;;;;14.40;55.68;100141.64;1646395;84;20146;-70
2022/04/30 07:13:32;;;;;;;;;;;;;;;14.54;56.22;100140.89;1638637;85;20132;-70
2022/04/30 07:16:07;;;;;;;;;;;;;;;14.78;54.93;100140.36;1618101;86;20114;-70
2022/04/30 07:18:33;;;;;;;;;;;;;;;14.97;55.30;100137.78;1653826;85;20104;-69
2022/04/30 07:21:08;;;;;;;;;;;;;;;15.14;54.86;100135.73;1614935;85;20128;-74
2022/04/30 07:23:37;;;;;;;;;;;;;;;15.17;50.75;100135.64;1626763;86;20616;-69
2022/04/30 07:26:03;;;;;;;;;;;;;;;15.23;51.98;100131.55;1653063;85;20163;-73
2022/04/30 07:28:35;;;;;;;;;;;;;;;15.36;52.33;100133.85;1632995;87;21250;-78
2022/04/30 07:31:04;;;;;;;;;;;;;;;15.54;52.33;100136.77;1636138;87;20160;-72
2022/04/30 07:33:30;;;;;;;;;;;;;;;15.74;52.79;100131.84;1630608;87;20191;-73
2022/04/30 07:35:57;;;;;;;;;;;;;;;15.98;53.24;100131.76;1636601;87;20117;-75
2022/04/30 07:38:30;;;;;;;;;;;;;;;16.14;51.43;100129.43;1638559;86;20148;-71
2022/04/30 07:40:57;;;;;;;;;;;;;;;16.05;49.42;100132.03;1632019;87;21172;-71
2022/04/30 07:43:27;;;;;;;;;;;;;;;15.94;48.64;100129.42;1633244;87;20442;-69
2022/04/30 07:46:00;;;;;;;;;;;;;;;15.82;49.25;100134.31;1638228;86;20235;-72
2022/04/30 07:48:25;;;;;;;;;;;;;;;15.74;50.22;100137.38;1603208;87;20124;-73
2022/04/30 07:50:57;;;;;;;;;;;;;;;15.63;49.62;100137.53;1635510;87;20100;-74
2022/04/30 07:53:28;;;;;;;;;;;;;;;15.40;49.29;100134.23;1638257;85;21180;-74
2022/04/30 07:56:00;;;;;;;;;;;;;;;15.15;48.97;100129.06;1649174;86;20147;-82
2022/04/30 08:01:10;;;;;;;;;;;;;;;14.83;50.44;100126.93;1635267;87;20110;-73
2022/04/30 08:03:40;;;;;;;;;;;;;;;14.83;49.74;100129.70;1633265;88;20472;-72
2022/04/30 08:06:07;;;;;;;;;;;;;;;14.84;49.12;100129.36;1633219;88;21170;-71
2022/04/30 08:08:34;;;;;;;;;;;;;;;14.88;48.09;100130.09;1633068;88;20090;-72
2022/04/30 08:11:04;;;;;;;;;;;;;;;14.87;49.37;100125.13;1633015;88;20123;-76
2022/04/30 08:13:36;;;;;;;;;;;;;;;14.96;49.25;100123.15;1627110;87;20455;-77
2022/04/30 08:16:09;;;;;;;;;;;;;;;15.10;50.30;100113.23;1607192;89;20094;-74
2022/04/30 08:18:38;;;;;;;;;;;;;;;15.48;49.63;100120.92;1621316;88;20122;-71
2022/04/30 08:21:08;;;;;;;;;;;;;;;15.77;46.97;100115.94;1621308;88;20126;-76
2022/04/30 08:23:36;;;;;;;;;;;;;;;15.96;47.15;100121.59;1634632;86;20087;-75
2022/04/30 08:26:03;;;;;;;;;;;;;;;16.16;48.82;100113.28;1628200;86;20484;-73
2022/04/30 08:28:42;;;;;;;;;;;;;;;16.37;47.70;100114.61;1627868;87;20255;-78
2022/04/30 08:31:06;;;;;;;;;;;;;;;16.48;48.02;100110.84;1607220;88;21188;-77
2022/04/30 08:33:43;;;;;;;;;;;;;;;16.45;47.94;100108.17;1608209;89;20085;-72
2022/04/30 08:36:08;;;;;;;;;;;;;;;16.42;46.41;100104.70;1608018;87;20129;-69
2022/04/30 08:38:39;;;;;;;;;;;;;;;16.43;47.50;100100.78;1608406;89;20115;-69
2022/04/30 08:41:14;;;;;;;;;;;;;;;16.41;45.13;100094.77;1595876;89;20118;-73
2022/04/30 08:43:40;;;;;;;;;;;;;;;16.22;43.99;100104.16;1596194;89;20104;-73
2022/04/30 08:46:08;;;;;;;;;;;;;;;15.95;46.29;100102.78;1608142;88;20109;-71
2022/04/30 08:48:40;;;;;;;;;;;;;;;15.76;48.49;100101.86;1607954;87;20168;-78
2022/04/30 08:51:11;;;;;;;;;;;;;;;15.60;49.85;100109.14;1602543;89;20125;-74
2022/04/30 08:53:39;;;;;;;;;;;;;;;15.48;47.91;100103.52;1596097;89;20125;-78
2022/04/30 08:56:12;;;;;;;;;;;;;;;15.31;47.71;100106.38;1611794;86;21203;-78
2022/04/30 08:58:39;;;;;;;;;;;;;;;15.16;48.44;100105.80;1607446;88;20229;-73
2022/04/30 09:01:07;;;;;;;;;;;;;;;15.02;49.07;100102.44;1608190;87;20132;-73
2022/04/30 09:03:37;;;;;;;;;;;;;;;14.86;48.38;100109.11;1607960;88;20152;-70
2022/04/30 09:06:06;;;;;;;;;;;;;;;14.74;48.79;100104.03;1608279;89;20455;-71
2022/04/30 09:08:35;;;;;;;;;;;;;;;14.64;48.22;100104.38;1608516;88;21188;-74
2022/04/30 09:11:10;;;;;;;;;;;;;;;14.63;47.63;100100.00;1608045;89;20242;-72
2022/04/30 09:13:43;;;;;;;;;;;;;;;14.63;47.60;100101.37;1608097;88;20132;-73
2022/04/30 09:16:20;;;;;;;;;;;;;;;14.62;47.21;100104.71;1608565;88;20126;-74
2022/04/30 09:18:48;;;;;;;;;;;;;;;14.64;47.73;100098.29;1605009;88;20470;-71
2022/04/30 09:21:15;;;;;;;;;;;;;;;14.71;48.68;100100.55;1608553;89;21814;-71
2022/04/30 09:23:46;;;;;;;;;;;;;;;14.80;48.95;100102.72;1608709;88;20117;-71
2022/04/30 09:26:14;;;;;;;;;;;;;;;14.88;48.01;100088.05;1608631;88;20172;-71
2022/04/30 09:28:42;;;;;;;;;;;;;;;14.95;47.95;100093.06;1621018;86;20147;-70
2022/04/30 09:31:14;;;;;;;;;;;;;;;15.02;48.09;100090.00;1610957;87;20105;-70
2022/04/30 09:33:52;;;;;;;;;;;;;;;15.07;48.01;100088.43;1608612;89;21135;-69
2022/04/30 09:39:15;;;;;;;;;;;;;;;15.17;46.97;100092.20;1608409;89;20117;-74
2022/04/30 09:41:44;;;;;;;;;;;;;;;15.24;46.65;100093.06;1608330;88;20251;-73
2022/04/30 09:44:12;;;;;;;;;;;;;;;15.36;46.78;100090.97;1608449;88;20463;-71
2022/04/30 09:46:40;;;;;;;;;;;;;;;15.47;46.65;100086.67;1608576;89;21285;-79
2022/04/30 09:54:41;;;;;;;;;;;;;;;15.78;46.33;100084.34;1608649;89;20244;-71
2022/04/30 09:57:09;;;;;;;;;;;;;;;15.89;46.82;100080.60;1613469;86;20131;-71
2022/04/30 09:59:38;;;;;;;;;;;;;;;16.11;46.25;100077.48;1634486;88;21173;-71
2022/04/30 10:02:09;;;;;;;;;;;;;;;16.33;44.88;100081.00;1634797;86;20442;-71
2022/04/30 10:04:38;;;;;;;;;;;;;;;16.49;44.74;100075.86;1620237;88;20090;-71
2022/04/30 10:07:10;;;;;;;;;;;;;;;16.64;41.26;100072.20;1631363;86;20142;-71
2022/04/30 10:09:46;;;;;;;;;;;;;;;16.60;42.40;100068.50;1628180;86;20109;-70
2022/04/30 10:12:32;;;;;;;;;;;;;;;16.71;43.52;100072.48;1634460;88;21161;-71
2022/04/30 10:15:34;;;;;;;;;;;;;;;16.83;42.50;100062.19;1631007;86;20123;-71
2022/04/30 10:18:00;;;;;;;;;;;;;;;17.06;40.16;100056.20;1608334;89;20097;-71
2022/04/30 10:20:33;;;;;;;;;;;;;;;17.34;38.60;100055.70;1608250;87;20496;-70
2022/04/30 10:23:04;;;;;;;;;;;;;;;17.75;38.16;100051.03;1608580;89;20081;-69
2022/04/30 10:25:46;;;;;;;;;;;;;;;18.17;39.72;100058.38;1608645;89;21180;-71
2022/04/30 10:28:23;;;;;;;;;;;;;;;18.45;39.02;100052.22;1608130;88;20148;-71
2022/04/30 10:31:04;;;;;;;;;;;;;;;18.57;37.41;100056.06;1616537;88;20197;-71
2022/04/30 10:33:28;;;;;;;;;;;;;;;18.42;38.63;100057.09;1608234;89;20122;-71
2022/04/30 10:36:06;;;;;;;;;;;;;;;18.10;36.07;100058.98;1608427;88;20144;-71
2022/04/30 10:38:39;;;;;;;;;;;;;;;17.78;36.05;100067.80;1595426;89;20132;-70
2022/04/30 10:41:09;;;;;;;;;;;;;;;17.30;37.41;100065.09;1608400;88;20552;-70
2022/04/30 10:43:49;;;;;;;;;;;;;;;16.91;37.58;100072.94;1595581;89;20145;-70
2022/04/30 10:46:21;;;;;;;;;;;;;;;16.49;39.50;100076.44;1608508;88;20300;-70
2022/04/30 10:48:50;;;;;;;;;;;;;;;16.16;40.85;100076.46;1608710;87;20125;-70
2022/04/30 10:51:40;;;;;;;;;;;;;;;15.87;42.35;100080.70;1608490;89;21270;-69
2022/04/30 10:54:18;;;;;;;;;;;;;;;15.64;43.26;100078.84;1629026;86;20150;-71
2022/04/30 10:56:45;;;;;;;;;;;;;;;15.37;43.73;100080.95;1629474;88;20159;-70
2022/04/30 10:59:27;;;;;;;;;;;;;;;15.22;44.25;100073.80;1631259;86;20103;-70
2022/04/30 11:01:56;;;;;;;;;;;;;;;15.06;45.09;100076.32;1612543;88;20106;-71
2022/04/30 11:04:23;;;;;;;;;;;;;;;14.90;45.25;100077.48;1610976;87;21286;-70
2022/04/30 11:06:52;;;;;;;;;;;;;;;14.76;46.11;100077.69;1608499;89;20089;-70
2022/04/30 11:09:22;;;;;;;;;;;;;;;14.66;46.50;100076.66;1608521;87;20149;-70
2022/04/30 11:11:54;;;;;;;;;;;;;;;14.61;46.95;100090.66;1608693;89;20106;-70
2022/04/30 11:14:26;;;;;;;;;;;;;;;14.56;46.40;100082.55;1608489;88;20432;-70
2022/04/30 11:16:51;;;;;;;;;;;;;;;14.50;46.01;100089.38;1595712;89;21807;-71
2022/04/30 11:19:21;;;;;;;;;;;;;;;14.38;46.16;100082.34;1608327;89;20105;-70
2022/04/30 11:21:53;;;;;;;;;;;;;;;14.33;46.63;100083.89;1608486;89;20096;-71
2022/04/30 11:24:26;;;;;;;;;;;;;;;14.31;48.07;100080.08;1592050;89;20084;-70
2022/04/30 11:27:03;;;;;;;;;;;;;;;14.34;47.94;100079.98;1608505;88;20467;-70
2022/04/30 11:29:37;;;;;;;;;;;;;;;14.33;47.01;100082.51;1751837;80;20140;-70
2022/04/30 11:32:09;;;;;;;;;;;;;;;14.27;46.07;100079.11;1767443;80;20116;-71
2022/04/30 11:34:43;;;;;;;;;;;;;;;14.15;46.57;100083.91;1758852;80;20085;-70
2022/04/30 11:37:14;;;;;;;;;;;;;;;14.06;46.92;100074.01;1739086;82;20247;-71
2022/04/30 11:39:42;;;;;;;;;;;;;;;14.02;46.51;100073.84;1725958;82;20425;-71
2022/04/30 11:42:22;;;;;;;;;;;;;;;14.02;46.67;100075.80;1743803;80;21175;-71
2022/04/30 11:44:44;;;;;;;;;;;;;;;14.04;47.07;100074.91;1732307;80;20782;-70
2022/04/30 11:47:15;;;;;;;;;;;;;;;14.08;47.34;100071.16;1700228;82;20082;-70
2022/04/30 11:49:50;;;;;;;;;;;;;;;14.07;47.44;100073.69;1749027;81;20154;-71
2022/04/30 11:52:18;;;;;;;;;;;;;;;14.00;47.65;100072.55;1700646;82;20151;-70
2022/04/30 11:54:55;;;;;;;;;;;;;;;13.97;47.63;100077.34;1689275;82;21568;-70
2022/04/30 11:57:22;;;;;;;;;;;;;;;13.94;48.30;100071.91;1734893;80;20087;-70
2022/04/30 11:59:54;;;;;;;;;;;;;;;13.94;48.52;100071.91;1739416;81;20434;-71
2022/04/30 12:02:24;;;;;;;;;;;;;;;13.98;48.34;100064.59;1739662;81;20196;-71
2022/04/30 12:04:54;;;;;;;;;;;;;;;14.04;47.83;100063.86;1744481;81;20446;-71
2022/04/30 12:07:24;;;;;;;;;;;;;;;14.09;47.74;100060.36;1730878;80;21935;-71
2022/04/30 12:09:55;;;;;;;;;;;;;;;14.19;48.24;100068.88;1736526;82;20107;-72
2022/04/30 12:12:37;;;;;;;;;;;;;;;14.27;47.53;100062.53;1725523;82;20247;-70
2022/04/30 12:14:54;;;;;;;;;;;;;;;14.35;47.73;100061.71;1701328;82;20135;-70
2022/04/30 12:17:31;;;;;;;;;;;;;;;14.45;46.54;100059.17;1692966;82;20186;-70
2022/04/30 12:25:39;;;;;;;;;;;;;;;14.40;50.67;100064.30;1697594;83;20435;-71
2022/04/30 12:28:06;;;;;;;;;;;;;;;14.37;51.18;100055.86;1720895;82;20074;-71
2022/04/30 12:30:33;;;;;;;;;;;;;;;14.41;51.25;100053.52;1685327;83;20137;-72
2022/04/30 12:33:04;;;;;;;;;;;;;;;14.54;51.64;100058.58;1715426;82;21104;-71
2022/04/30 12:35:32;;;;;;;;;;;;;;;14.83;49.48;100055.06;1683644;83;20096;-72
2022/04/30 12:38:16;;;;;;;;;;;;;;;14.97;48.76;100051.52;1700870;83;20163;-72
2022/04/30 12:40:42;;;;;;;;;;;;;;;14.97;49.99;100052.89;1700117;83;20149;-73
2022/04/30 12:43:08;;;;;;;;;;;;;;;14.90;46.72;100048.45;1712907;83;20127;-72
2022/04/30 12:45:37;;;;;;;;;;;;;;;14.72;46.88;100045.52;1707825;83;20109;-74
2022/04/30 12:48:05;;;;;;;;;;;;;;;14.62;47.68;100045.30;1713460;81;20120;-71
2022/04/30 12:50:32;;;;;;;;;;;;;;;14.56;46.95;100040.29;1708204;83;20206;-72
2022/04/30 12:52:59;;;;;;;;;;;;;;;14.59;48.67;100040.44;1712492;83;20142;-71
2022/04/30 12:55:33;;;;;;;;;;;;;;;15.07;47.80;100041.42;1718146;83;20092;-70
2022/04/30 12:58:00;;;;;;;;;;;;;;;15.70;45.24;100046.47;1707816;81;21139;-71
2022/04/30 13:00:26;;;;;;;;;;;;;;;16.06;46.03;100040.87;1702530;83;20173;-72
2022/04/30 13:02:53;;;;;;;;;;;;;;;16.11;45.20;100044.25;1693174;83;20153;-72
2022/04/30 13:05:21;;;;;;;;;;;;;;;15.83;46.08;100039.85;1713437;83;20147;-71
2022/04/30 13:07:49;;;;;;;;;;;;;;;15.52;46.42;100050.52;1683352;83;20177;-72
2022/04/30 13:15:50;;;;;;;;;;;;;;;14.64;46.68;100045.79;1733763;82;20147;-72
2022/04/30 13:18:23;;;;;;;;;;;;;;;14.53;48.22;100047.28;1737361;80;20524;-72
2022/04/30 13:20:52;;;;;;;;;;;;;;;14.49;48.41;100049.89;1731549;81;20415;-71
2022/04/30 13:23:32;;;;;;;;;;;;;;;14.48;47.01;100040.55;1733053;81;21800;-72
2022/04/30 13:25:52;;;;;;;;;;;;;;;14.37;47.66;100040.09;1732051;81;20204;-72
2022/04/30 13:28:20;;;;;;;;;;;;;;;14.26;48.10;100036.63;1735280;80;20193;-71
2022/04/30 13:30:51;;;;;;;;;;;;;;;14.36;48.74;100039.05;1765441;80;20516;-71
2022/04/30 13:33:19;;;;;;;;;;;;;;;14.53;47.15;100038.43;1728589;81;20140;-71
2022/04/30 13:35:50;;;;;;;;;;;;;;;14.98;48.92;100034.34;1730787;82;21129;-72
2022/04/30 13:38:17;;;;;;;;;;;;;;;15.75;46.33;100028.28;1731464;82;20124;-71
2022/04/30 13:40:48;;;;;;;;;;;;;;;16.70;46.64;100014.84;1732777;80;20430;-72
2022/04/30 13:43:18;;;;;;;;;;;;;;;17.53;43.80;100014.84;1741530;81;20552;-71
2022/04/30 13:45:47;;;;;;;;;;;;;;;18.12;41.03;100010.01;1735436;81;20172;-72